createdAt,value
2022-08-14T00:03:05.703Z,23.70
2022-08-14T00:08:14.359Z,23.70
2022-08-14T00:13:20.549Z,23.70
2022-08-14T00:18:30.409Z,23.70
2022-08-14T00:23:54.250Z,23.70
2022-08-14T00:28:58.014Z,23.60
2022-08-14T00:34:36.803Z,23.60
2022-08-14T00:39:26.370Z,23.50
2022-08-14T00:44:32.312Z,23.50
2022-08-14T00:49:42.843Z,23.50
2022-08-14T00:54:52.945Z,23.50
2022-08-14T01:00:02.227Z,23.50
2022-08-14T01:05:07.671Z,23.50
2022-08-14T01:10:12.818Z,23.40
2022-08-14T01:15:21.474Z,23.40
2022-08-14T01:21:02.057Z,23.40
2022-08-14T01:26:07.459Z,23.40
2022-08-14T01:31:18.806Z,23.30
2022-08-14T01:36:23.284Z,23.40
2022-08-14T01:41:29.978Z,23.40
2022-08-14T01:46:37.120Z,23.30
2022-08-14T01:51:41.713Z,23.60
2022-08-14T01:56:48.197Z,23.90
2022-08-14T02:01:59.957Z,24.20
2022-08-14T02:07:03.926Z,24.60
2022-08-14T02:12:10.925Z,24.80
2022-08-14T02:17:23.679Z,25.10
2022-08-14T02:22:28.643Z,25.30
2022-08-14T02:28:23.244Z,25.40
2022-08-14T02:33:05.682Z,25.40
2022-08-14T02:38:11.722Z,25.40
2022-08-14T02:43:17.676Z,25.50
2022-08-14T02:49:03.048Z,25.40
2022-08-14T02:54:00.235Z,25.50
2022-08-14T02:59:06.476Z,25.50
2022-08-14T03:04:10.742Z,25.50
2022-08-14T03:09:15.236Z,25.50
2022-08-14T03:14:23.021Z,25.50
2022-08-14T03:19:26.540Z,25.40
2022-08-14T03:24:30.513Z,25.40
2022-08-14T03:29:39.669Z,25.40
2022-08-14T03:34:48.555Z,25.40
2022-08-14T03:39:59.186Z,25.40
2022-08-14T03:45:25.609Z,25.30
2022-08-14T03:50:31.389Z,25.20
2022-08-14T03:55:36.647Z,25.20
2022-08-14T04:00:46.232Z,25.20
2022-08-14T04:05:49.607Z,25.10
2022-08-14T04:10:53.272Z,25.10
2022-08-14T04:16:01.867Z,25.00
2022-08-14T04:21:08.681Z,25.00
2022-08-14T04:26:27.243Z,24.90
2022-08-14T04:32:59.211Z,24.90
2022-08-14T04:37:22.339Z,24.90
2022-08-14T04:42:47.088Z,24.90
2022-08-14T04:48:39.460Z,24.90
2022-08-14T04:53:43.290Z,25.00
2022-08-14T04:58:47.952Z,24.90
2022-08-14T05:03:54.782Z,25.00
2022-08-14T05:08:59.614Z,25.00
2022-08-14T05:14:43.018Z,25.00
2022-08-14T05:19:29.288Z,25.00
2022-08-14T05:24:33.272Z,25.10
2022-08-14T05:29:37.097Z,25.10
2022-08-14T05:34:41.773Z,25.20
2022-08-14T05:39:49.357Z,25.30
2022-08-14T05:44:54.758Z,25.30
2022-08-14T05:50:02.072Z,25.40
2022-08-14T05:55:06.367Z,25.40
2022-08-14T06:00:11.174Z,25.50
2022-08-14T06:05:30.048Z,25.60
2022-08-14T06:10:33.604Z,25.70
2022-08-14T06:15:36.968Z,25.70
2022-08-14T06:20:42.073Z,25.80
2022-08-14T06:25:45.761Z,25.90
2022-08-14T06:30:57.648Z,25.90
2022-08-14T06:36:02.376Z,26.00
2022-08-14T06:41:10.955Z,26.10
2022-08-14T06:46:32.309Z,26.20
2022-08-14T06:51:44.601Z,26.20
2022-08-14T06:56:54.446Z,26.30
2022-08-14T07:02:19.083Z,26.30
2022-08-14T07:07:24.256Z,26.30
2022-08-14T07:12:52.034Z,26.30
2022-08-14T07:17:55.824Z,26.40
2022-08-14T07:23:07.633Z,26.30
2022-08-14T07:28:20.944Z,26.20
2022-08-14T07:33:30.035Z,26.10
2022-08-14T07:38:38.016Z,26.10
2022-08-14T07:43:43.136Z,26.00
2022-08-14T07:48:48.565Z,25.90
2022-08-14T07:53:56.855Z,25.70
2022-08-14T07:59:00.741Z,25.70
2022-08-14T08:04:16.780Z,25.60
2022-08-14T08:09:31.775Z,25.60
2022-08-14T08:14:56.730Z,25.60
2022-08-14T08:19:59.556Z,25.50
2022-08-14T08:25:08.512Z,25.60
2022-08-14T08:30:17.508Z,25.60
2022-08-14T08:35:23.742Z,25.60
2022-08-14T08:40:32.440Z,25.60
2022-08-14T08:45:37.646Z,25.70
2022-08-14T08:55:46.835Z,25.80
2022-08-14T09:00:54.086Z,25.90
2022-08-14T09:06:01.321Z,25.90
2022-08-14T09:11:19.138Z,26.00
2022-08-14T09:16:26.487Z,26.00
2022-08-14T09:21:31.829Z,26.00
2022-08-14T09:26:38.407Z,26.00
2022-08-14T09:31:52.754Z,26.00
2022-08-14T09:37:21.914Z,25.90
2022-08-14T09:42:50.207Z,25.90
2022-08-14T09:47:56.934Z,26.00
2022-08-14T09:53:04.012Z,25.90
2022-08-14T09:58:19.836Z,26.00
2022-08-14T10:03:34.046Z,26.00
2022-08-14T10:08:51.152Z,26.00
2022-08-14T10:13:59.170Z,26.10
2022-08-14T10:19:05.298Z,26.20
2022-08-14T10:24:17.563Z,26.20
2022-08-14T10:29:32.931Z,26.30
2022-08-14T10:34:40.953Z,26.40
2022-08-14T10:40:02.073Z,26.50
2022-08-14T10:45:24.358Z,26.50
2022-08-14T10:50:33.160Z,26.60
2022-08-14T10:55:45.432Z,26.60
2022-08-14T11:00:58.933Z,26.70
2022-08-14T11:06:15.298Z,26.70
2022-08-14T11:11:20.880Z,26.70
2022-08-14T11:16:29.460Z,26.80
2022-08-14T11:21:34.108Z,26.90
2022-08-14T11:26:40.079Z,27.00
2022-08-14T11:31:46.573Z,27.00
2022-08-14T11:37:17.955Z,26.90
2022-08-14T11:53:55.473Z,26.50
2022-08-14T11:58:59.435Z,26.40
2022-08-14T12:04:21.529Z,26.30
2022-08-14T12:09:38.856Z,26.20
2022-08-14T12:14:52.278Z,26.10
2022-08-14T12:19:58.530Z,26.00
2022-08-14T12:25:10.015Z,26.00
2022-08-14T12:30:21.122Z,25.90
2022-08-14T12:35:36.365Z,25.80
2022-08-14T12:40:48.608Z,25.90
2022-08-14T12:46:00.434Z,25.90
2022-08-14T12:51:04.704Z,26.00
2022-08-14T12:56:22.160Z,26.10
2022-08-14T13:01:59.371Z,26.30
2022-08-14T13:07:07.313Z,26.50
2022-08-14T13:12:31.769Z,26.50
2022-08-14T13:17:43.291Z,26.40
2022-08-14T13:22:47.086Z,26.40
2022-08-14T13:27:57.691Z,26.30
2022-08-14T13:38:51.684Z,26.10
2022-08-14T13:43:59.968Z,26.00
2022-08-14T13:49:04.333Z,26.00
2022-08-14T14:42:13.772Z,27.40
2022-08-14T14:47:22.954Z,28.30
2022-08-14T14:52:27.799Z,28.90
2022-08-14T14:57:34.978Z,29.40
2022-08-14T15:02:41.360Z,29.70
2022-08-14T15:07:47.582Z,30.00
2022-08-14T15:12:55.939Z,30.20
2022-08-14T15:18:01.130Z,30.40
2022-08-14T15:23:11.659Z,30.50
2022-08-14T15:28:20.971Z,30.50
2022-08-14T15:34:01.194Z,30.50
2022-08-14T15:39:02.582Z,30.40
2022-08-14T15:44:07.714Z,30.30
2022-08-14T15:49:34.552Z,30.30
2022-08-14T15:54:38.678Z,30.50
2022-08-14T16:00:03.068Z,31.00
2022-08-14T16:05:08.402Z,31.80
2022-08-14T16:10:29.351Z,32.60
2022-08-14T16:15:35.955Z,33.30
2022-08-14T16:20:44.543Z,34.00
2022-08-14T16:25:49.115Z,34.60
2022-08-14T16:30:57.496Z,34.70
2022-08-14T16:36:01.661Z,34.70
2022-08-14T16:41:23.017Z,34.70
2022-08-14T16:46:32.830Z,34.70
2022-08-14T16:51:38.408Z,34.40
2022-08-14T16:56:43.426Z,34.10
2022-08-14T17:01:57.585Z,33.80
2022-08-14T17:07:03.091Z,33.60
2022-08-14T17:12:33.376Z,33.30
2022-08-14T17:17:50.055Z,33.10
2022-08-14T17:23:01.579Z,32.80
2022-08-14T17:28:52.463Z,32.40
2022-08-14T17:33:40.922Z,32.10
2022-08-14T17:38:59.805Z,31.70
2022-08-14T17:44:14.108Z,31.40
2022-08-14T17:49:28.144Z,31.10
2022-08-14T17:54:38.146Z,30.80
2022-08-14T17:59:43.205Z,30.60
2022-08-14T18:04:48.344Z,30.30
2022-08-14T18:09:58.857Z,30.10
2022-08-14T18:15:14.485Z,29.80
2022-08-14T18:21:40.370Z,29.60
2022-08-14T18:25:51.630Z,29.40
2022-08-14T18:31:44.121Z,29.20
2022-08-14T18:36:56.727Z,29.00
2022-08-14T18:42:34.987Z,28.80
2022-08-14T18:48:03.527Z,28.70
2022-08-14T18:53:10.849Z,28.50
2022-08-14T18:58:27.629Z,28.30
2022-08-14T19:04:00.694Z,28.10
2022-08-14T19:09:07.564Z,28.00
2022-08-14T19:14:16.309Z,27.80
2022-08-14T19:19:19.879Z,27.70
2022-08-14T19:24:44.218Z,27.60
2022-08-14T19:29:51.357Z,27.50
2022-08-14T19:34:55.117Z,27.50
2022-08-14T19:40:15.077Z,27.40
2022-08-14T19:45:23.652Z,27.30
2022-08-14T19:50:39.039Z,27.20
2022-08-14T19:55:59.332Z,27.20
2022-08-14T20:01:08.797Z,27.10
2022-08-14T20:06:12.838Z,26.90
2022-08-14T20:12:00.369Z,26.90
2022-08-14T20:17:06.194Z,26.80
2022-08-14T20:22:36.886Z,26.70
2022-08-14T20:27:40.190Z,26.70
2022-08-14T20:32:48.317Z,26.80
2022-08-14T20:38:29.424Z,27.00
2022-08-14T20:43:45.225Z,27.20
2022-08-14T20:49:00.107Z,27.30
2022-08-14T20:54:05.275Z,27.30
2022-08-14T20:59:18.109Z,27.30
2022-08-14T21:04:28.108Z,27.30
2022-08-14T21:10:03.248Z,27.30
2022-08-14T21:14:55.139Z,27.30
2022-08-14T21:20:25.593Z,27.20
2022-08-14T21:25:26.630Z,27.20
2022-08-14T21:30:51.598Z,27.20
2022-08-14T21:36:00.345Z,27.20
2022-08-14T21:41:42.216Z,27.10
2022-08-14T21:46:49.938Z,27.00
2022-08-14T21:52:02.670Z,26.90
2022-08-14T21:58:03.879Z,26.80
2022-08-14T22:02:51.866Z,26.80
2022-08-14T22:08:00.400Z,26.70
2022-08-14T22:13:05.897Z,26.60
2022-08-14T22:18:20.268Z,26.60
2022-08-14T22:23:27.539Z,26.50
2022-08-14T22:28:32.656Z,26.50
2022-08-14T22:33:36.724Z,26.40
2022-08-14T22:38:49.600Z,26.30
2022-08-14T22:43:56.523Z,26.30
2022-08-14T22:49:16.535Z,26.20
2022-08-14T22:54:51.787Z,26.20
2022-08-14T22:59:51.510Z,26.20
2022-08-14T23:04:56.305Z,26.10
2022-08-14T23:10:32.941Z,26.10
2022-08-14T23:15:29.978Z,26.10
2022-08-14T23:20:36.118Z,26.00
2022-08-14T23:25:59.360Z,26.00
2022-08-14T23:31:08.419Z,26.00
2022-08-14T23:36:31.823Z,26.00
2022-08-14T23:41:46.499Z,25.90
2022-08-14T23:47:03.498Z,25.90
2022-08-14T23:53:07.418Z,25.90
2022-08-14T23:57:34.022Z,25.90
